sensor_id;sensor_type;location;lat;lon;timestamp;temperature;humidity
318;DHT22;146;53.448;10.228;2022-10-16T00:00:54;15.00;4.30
318;DHT22;146;53.448;10.228;2022-10-16T00:03:25;15.00;4.40
318;DHT22;146;53.448;10.228;2022-10-16T00:05:51;15.00;4.30
318;DHT22;146;53.448;10.228;2022-10-16T00:08:19;15.00;4.50
318;DHT22;146;53.448;10.228;2022-10-16T00:10:52;14.90;4.70
318;DHT22;146;53.448;10.228;2022-10-16T00:13:24;14.90;4.70
318;DHT22;146;53.448;10.228;2022-10-16T00:15:54;14.90;4.70
318;DHT22;146;53.448;10.228;2022-10-16T00:18:25;14.80;4.90
318;DHT22;146;53.448;10.228;2022-10-16T00:20:52;14.80;5.10
318;DHT22;146;53.448;10.228;2022-10-16T00:23:20;14.80;5.20
318;DHT22;146;53.448;10.228;2022-10-16T00:25:54;14.80;5.00
318;DHT22;146;53.448;10.228;2022-10-16T00:28:27;14.80;5.00
318;DHT22;146;53.448;10.228;2022-10-16T00:30:54;14.70;5.00
318;DHT22;146;53.448;10.228;2022-10-16T00:33:21;14.70;4.80
318;DHT22;146;53.448;10.228;2022-10-16T00:35:53;14.60;5.00
318;DHT22;146;53.448;10.228;2022-10-16T00:38:19;14.60;4.90
318;DHT22;146;53.448;10.228;2022-10-16T00:40:56;14.60;4.90
318;DHT22;146;53.448;10.228;2022-10-16T00:43:35;14.60;5.00
318;DHT22;146;53.448;10.228;2022-10-16T00:46:08;14.50;4.70
318;DHT22;146;53.448;10.228;2022-10-16T00:48:37;14.50;4.80
318;DHT22;146;53.448;10.228;2022-10-16T00:51:06;14.50;4.90
318;DHT22;146;53.448;10.228;2022-10-16T00:53:33;14.50;4.60
318;DHT22;146;53.448;10.228;2022-10-16T00:56:04;14.50;4.60
318;DHT22;146;53.448;10.228;2022-10-16T00:58:31;14.40;4.50
318;DHT22;146;53.448;10.228;2022-10-16T01:00:58;14.40;4.60
318;DHT22;146;53.448;10.228;2022-10-16T01:03:28;14.40;4.60
318;DHT22;146;53.448;10.228;2022-10-16T01:06:04;14.30;4.60
318;DHT22;146;53.448;10.228;2022-10-16T01:08:39;14.30;4.50
318;DHT22;146;53.448;10.228;2022-10-16T01:11:14;14.20;4.80
318;DHT22;146;53.448;10.228;2022-10-16T01:13:47;14.20;4.80
318;DHT22;146;53.448;10.228;2022-10-16T01:16:22;14.20;4.80
318;DHT22;146;53.448;10.228;2022-10-16T01:18:56;14.20;4.80
318;DHT22;146;53.448;10.228;2022-10-16T01:21:31;14.20;4.60
318;DHT22;146;53.448;10.228;2022-10-16T01:24:06;14.20;4.20
318;DHT22;146;53.448;10.228;2022-10-16T01:26:43;14.30;3.90
318;DHT22;146;53.448;10.228;2022-10-16T01:29:18;14.30;3.70
318;DHT22;146;53.448;10.228;2022-10-16T01:31:52;14.30;3.40
318;DHT22;146;53.448;10.228;2022-10-16T01:34:25;14.30;2.90
318;DHT22;146;53.448;10.228;2022-10-16T01:36:57;14.30;2.40
318;DHT22;146;53.448;10.228;2022-10-16T01:39:38;14.30;1.90
318;DHT22;146;53.448;10.228;2022-10-16T01:42:13;14.30;1.70
318;DHT22;146;53.448;10.228;2022-10-16T01:44:43;14.20;1.70
318;DHT22;146;53.448;10.228;2022-10-16T01:47:13;14.30;1.40
318;DHT22;146;53.448;10.228;2022-10-16T01:49:46;14.30;1.30
318;DHT22;146;53.448;10.228;2022-10-16T01:52:17;14.20;1.00
318;DHT22;146;53.448;10.228;2022-10-16T01:54:48;14.20;1.10
318;DHT22;146;53.448;10.228;2022-10-16T01:57:21;14.30;1.00
318;DHT22;146;53.448;10.228;2022-10-16T01:59:57;14.20;1.00
318;DHT22;146;53.448;10.228;2022-10-16T02:02:27;14.20;1.00
318;DHT22;146;53.448;10.228;2022-10-16T02:04:58;14.20;1.00
318;DHT22;146;53.448;10.228;2022-10-16T02:07:25;14.20;1.00
318;DHT22;146;53.448;10.228;2022-10-16T02:09:52;14.20;1.00
318;DHT22;146;53.448;10.228;2022-10-16T02:12:26;14.10;1.00
318;DHT22;146;53.448;10.228;2022-10-16T02:14:55;14.00;1.00
318;DHT22;146;53.448;10.228;2022-10-16T02:17:23;14.00;1.00
318;DHT22;146;53.448;10.228;2022-10-16T02:19:52;14.00;1.00
318;DHT22;146;53.448;10.228;2022-10-16T02:22:24;13.90;1.00
318;DHT22;146;53.448;10.228;2022-10-16T02:25:06;13.90;1.00
318;DHT22;146;53.448;10.228;2022-10-16T02:27:42;13.90;1.00
318;DHT22;146;53.448;10.228;2022-10-16T02:30:24;13.80;1.00
318;DHT22;146;53.448;10.228;2022-10-16T02:32:56;13.80;1.00
318;DHT22;146;53.448;10.228;2022-10-16T02:35:25;13.80;1.00
318;DHT22;146;53.448;10.228;2022-10-16T02:37:53;13.70;1.00
318;DHT22;146;53.448;10.228;2022-10-16T02:40:21;13.70;1.30
318;DHT22;146;53.448;10.228;2022-10-16T02:42:50;13.70;1.30
318;DHT22;146;53.448;10.228;2022-10-16T02:45:19;13.60;1.30
318;DHT22;146;53.448;10.228;2022-10-16T02:47:45;13.70;1.30
318;DHT22;146;53.448;10.228;2022-10-16T02:50:12;13.70;1.00
318;DHT22;146;53.448;10.228;2022-10-16T02:52:40;13.70;1.00
318;DHT22;146;53.448;10.228;2022-10-16T02:55:07;13.60;1.00
318;DHT22;146;53.448;10.228;2022-10-16T02:57:34;13.60;1.00
318;DHT22;146;53.448;10.228;2022-10-16T03:00:03;13.60;1.00
318;DHT22;146;53.448;10.228;2022-10-16T03:02:31;13.60;1.00
318;DHT22;146;53.448;10.228;2022-10-16T03:04:58;13.50;1.00
318;DHT22;146;53.448;10.228;2022-10-16T03:07:25;13.60;1.00
318;DHT22;146;53.448;10.228;2022-10-16T03:09:52;13.60;1.00
318;DHT22;146;53.448;10.228;2022-10-16T03:12:19;13.60;1.00
318;DHT22;146;53.448;10.228;2022-10-16T03:14:47;13.60;1.00
318;DHT22;146;53.448;10.228;2022-10-16T03:17:13;13.60;1.00
318;DHT22;146;53.448;10.228;2022-10-16T03:19:43;13.40;1.00
318;DHT22;146;53.448;10.228;2022-10-16T03:22:10;13.40;1.00
318;DHT22;146;53.448;10.228;2022-10-16T03:24:37;13.40;1.00
318;DHT22;146;53.448;10.228;2022-10-16T03:27:05;13.40;1.00
318;DHT22;146;53.448;10.228;2022-10-16T03:29:32;13.40;1.00
318;DHT22;146;53.448;10.228;2022-10-16T03:32:02;13.40;1.00
318;DHT22;146;53.448;10.228;2022-10-16T03:34:29;13.30;1.00
318;DHT22;146;53.448;10.228;2022-10-16T03:36:57;13.30;1.10
318;DHT22;146;53.448;10.228;2022-10-16T03:39:24;13.30;1.00
318;DHT22;146;53.448;10.228;2022-10-16T03:41:51;13.30;1.00
318;DHT22;146;53.448;10.228;2022-10-16T03:44:17;13.20;1.10
318;DHT22;146;53.448;10.228;2022-10-16T03:46:44;13.20;1.10
318;DHT22;146;53.448;10.228;2022-10-16T03:49:11;13.30;1.10
318;DHT22;146;53.448;10.228;2022-10-16T03:51:38;13.30;1.00
318;DHT22;146;53.448;10.228;2022-10-16T03:54:06;13.30;1.00
318;DHT22;146;53.448;10.228;2022-10-16T03:56:33;13.30;1.00
318;DHT22;146;53.448;10.228;2022-10-16T03:59:12;13.20;1.00
318;DHT22;146;53.448;10.228;2022-10-16T04:01:39;13.20;1.00
318;DHT22;146;53.448;10.228;2022-10-16T04:04:08;13.20;1.00
318;DHT22;146;53.448;10.228;2022-10-16T04:06:36;13.20;1.00
318;DHT22;146;53.448;10.228;2022-10-16T04:09:06;13.20;1.00
318;DHT22;146;53.448;10.228;2022-10-16T04:11:40;13.20;1.00
318;DHT22;146;53.448;10.228;2022-10-16T04:14:12;13.30;1.00
318;DHT22;146;53.448;10.228;2022-10-16T04:16:39;13.20;1.00
318;DHT22;146;53.448;10.228;2022-10-16T04:19:10;13.20;1.00
318;DHT22;146;53.448;10.228;2022-10-16T04:21:37;13.30;1.00
318;DHT22;146;53.448;10.228;2022-10-16T04:24:05;13.20;1.00
318;DHT22;146;53.448;10.228;2022-10-16T04:26:33;13.20;1.00
318;DHT22;146;53.448;10.228;2022-10-16T04:28:59;13.20;1.00
318;DHT22;146;53.448;10.228;2022-10-16T04:31:26;13.20;1.00
318;DHT22;146;53.448;10.228;2022-10-16T04:33:53;13.20;1.00
318;DHT22;146;53.448;10.228;2022-10-16T04:36:23;13.20;1.00
318;DHT22;146;53.448;10.228;2022-10-16T04:38:50;13.20;1.00
318;DHT22;146;53.448;10.228;2022-10-16T04:41:20;13.10;1.00
318;DHT22;146;53.448;10.228;2022-10-16T04:43:47;13.10;1.00
318;DHT22;146;53.448;10.228;2022-10-16T04:46:14;13.00;1.00
318;DHT22;146;53.448;10.228;2022-10-16T04:48:41;13.10;1.00
318;DHT22;146;53.448;10.228;2022-10-16T04:51:08;13.00;1.00
318;DHT22;146;53.448;10.228;2022-10-16T04:53:36;13.00;1.00
318;DHT22;146;53.448;10.228;2022-10-16T04:56:03;13.00;1.00
318;DHT22;146;53.448;10.228;2022-10-16T04:58:31;13.00;1.20
318;DHT22;146;53.448;10.228;2022-10-16T05:00:58;13.10;1.50
318;DHT22;146;53.448;10.228;2022-10-16T05:03:25;13.10;1.00
318;DHT22;146;53.448;10.228;2022-10-16T05:05:52;13.10;1.00
318;DHT22;146;53.448;10.228;2022-10-16T05:08:19;13.10;1.10
318;DHT22;146;53.448;10.228;2022-10-16T05:10:46;13.10;1.00
318;DHT22;146;53.448;10.228;2022-10-16T05:13:12;13.00;1.20
318;DHT22;146;53.448;10.228;2022-10-16T05:15:41;13.00;1.50
318;DHT22;146;53.448;10.228;2022-10-16T05:18:08;13.00;1.70
318;DHT22;146;53.448;10.228;2022-10-16T05:20:35;13.00;1.80
318;DHT22;146;53.448;10.228;2022-10-16T05:23:02;12.90;1.90
318;DHT22;146;53.448;10.228;2022-10-16T05:25:31;12.90;2.40
318;DHT22;146;53.448;10.228;2022-10-16T05:28:00;12.90;2.50
318;DHT22;146;53.448;10.228;2022-10-16T05:30:27;12.80;2.50
318;DHT22;146;53.448;10.228;2022-10-16T05:32:55;12.80;2.40
318;DHT22;146;53.448;10.228;2022-10-16T05:35:22;12.80;2.90
318;DHT22;146;53.448;10.228;2022-10-16T05:37:49;12.90;2.50
318;DHT22;146;53.448;10.228;2022-10-16T05:40:15;12.90;2.30
318;DHT22;146;53.448;10.228;2022-10-16T05:42:45;12.90;2.40
318;DHT22;146;53.448;10.228;2022-10-16T05:45:12;12.80;2.30
318;DHT22;146;53.448;10.228;2022-10-16T05:47:39;12.80;2.30
318;DHT22;146;53.448;10.228;2022-10-16T05:50:10;12.90;2.20
318;DHT22;146;53.448;10.228;2022-10-16T05:52:37;12.80;2.20
318;DHT22;146;53.448;10.228;2022-10-16T05:55:04;12.80;2.20
318;DHT22;146;53.448;10.228;2022-10-16T05:57:31;12.80;2.20
318;DHT22;146;53.448;10.228;2022-10-16T05:59:58;12.90;2.60
318;DHT22;146;53.448;10.228;2022-10-16T06:02:25;12.90;2.30
318;DHT22;146;53.448;10.228;2022-10-16T06:04:52;12.90;2.10
318;DHT22;146;53.448;10.228;2022-10-16T06:07:24;13.00;2.10
318;DHT22;146;53.448;10.228;2022-10-16T06:09:52;13.00;1.90
318;DHT22;146;53.448;10.228;2022-10-16T06:12:20;13.00;2.20
318;DHT22;146;53.448;10.228;2022-10-16T06:14:47;13.00;2.40
318;DHT22;146;53.448;10.228;2022-10-16T06:17:14;13.00;2.60
318;DHT22;146;53.448;10.228;2022-10-16T06:19:41;13.10;2.80
318;DHT22;146;53.448;10.228;2022-10-16T06:22:08;13.10;2.70
318;DHT22;146;53.448;10.228;2022-10-16T06:24:36;13.10;2.60
318;DHT22;146;53.448;10.228;2022-10-16T06:27:03;13.10;2.60
318;DHT22;146;53.448;10.228;2022-10-16T06:29:30;13.20;2.70
318;DHT22;146;53.448;10.228;2022-10-16T06:31:57;13.20;2.40
318;DHT22;146;53.448;10.228;2022-10-16T06:34:24;13.20;2.60
318;DHT22;146;53.448;10.228;2022-10-16T06:36:51;13.20;2.90
318;DHT22;146;53.448;10.228;2022-10-16T06:39:17;13.20;3.10
318;DHT22;146;53.448;10.228;2022-10-16T06:41:46;13.20;3.40
318;DHT22;146;53.448;10.228;2022-10-16T06:44:12;13.10;3.40
318;DHT22;146;53.448;10.228;2022-10-16T06:46:39;13.10;3.80
318;DHT22;146;53.448;10.228;2022-10-16T06:49:06;13.20;4.00
318;DHT22;146;53.448;10.228;2022-10-16T06:51:33;13.20;4.10
318;DHT22;146;53.448;10.228;2022-10-16T06:54:02;13.20;4.00
318;DHT22;146;53.448;10.228;2022-10-16T06:56:30;13.20;3.90
318;DHT22;146;53.448;10.228;2022-10-16T06:58:59;13.20;3.80
318;DHT22;146;53.448;10.228;2022-10-16T07:01:27;13.10;3.80
318;DHT22;146;53.448;10.228;2022-10-16T07:03:54;13.10;3.70
318;DHT22;146;53.448;10.228;2022-10-16T07:06:22;13.10;4.00
318;DHT22;146;53.448;10.228;2022-10-16T07:08:49;13.10;4.00
318;DHT22;146;53.448;10.228;2022-10-16T07:11:19;13.10;4.20
318;DHT22;146;53.448;10.228;2022-10-16T07:13:47;13.10;4.40
318;DHT22;146;53.448;10.228;2022-10-16T07:16:17;13.10;5.20
318;DHT22;146;53.448;10.228;2022-10-16T07:18:45;13.10;5.80
318;DHT22;146;53.448;10.228;2022-10-16T07:21:15;13.10;6.40
318;DHT22;146;53.448;10.228;2022-10-16T07:23:42;13.20;6.80
318;DHT22;146;53.448;10.228;2022-10-16T07:26:10;13.30;7.20
318;DHT22;146;53.448;10.228;2022-10-16T07:28:37;13.30;7.50
318;DHT22;146;53.448;10.228;2022-10-16T07:31:07;13.40;7.60
318;DHT22;146;53.448;10.228;2022-10-16T07:33:39;13.50;7.70
318;DHT22;146;53.448;10.228;2022-10-16T07:36:07;13.50;7.60
318;DHT22;146;53.448;10.228;2022-10-16T07:38:34;13.60;7.80
318;DHT22;146;53.448;10.228;2022-10-16T07:41:03;13.60;8.00
318;DHT22;146;53.448;10.228;2022-10-16T07:43:30;13.70;8.40
318;DHT22;146;53.448;10.228;2022-10-16T07:45:57;13.90;8.40
318;DHT22;146;53.448;10.228;2022-10-16T07:48:26;14.10;7.90
318;DHT22;146;53.448;10.228;2022-10-16T07:50:58;14.20;6.70
318;DHT22;146;53.448;10.228;2022-10-16T07:53:25;14.30;5.60
318;DHT22;146;53.448;10.228;2022-10-16T07:55:52;14.40;5.20
318;DHT22;146;53.448;10.228;2022-10-16T07:58:20;14.50;4.80
318;DHT22;146;53.448;10.228;2022-10-16T08:00:47;14.60;4.60
318;DHT22;146;53.448;10.228;2022-10-16T08:03:13;14.60;4.10
318;DHT22;146;53.448;10.228;2022-10-16T08:05:42;14.70;3.80
318;DHT22;146;53.448;10.228;2022-10-16T08:08:13;14.80;3.50
318;DHT22;146;53.448;10.228;2022-10-16T08:10:41;14.90;2.70
318;DHT22;146;53.448;10.228;2022-10-16T08:13:08;15.00;2.50
318;DHT22;146;53.448;10.228;2022-10-16T08:15:35;15.10;2.10
318;DHT22;146;53.448;10.228;2022-10-16T08:18:03;15.20;1.60
318;DHT22;146;53.448;10.228;2022-10-16T08:20:31;15.20;1.10
318;DHT22;146;53.448;10.228;2022-10-16T08:22:58;15.30;1.00
318;DHT22;146;53.448;10.228;2022-10-16T08:25:27;15.40;1.00
318;DHT22;146;53.448;10.228;2022-10-16T08:27:54;15.40;1.00
318;DHT22;146;53.448;10.228;2022-10-16T08:30:22;15.40;1.00
318;DHT22;146;53.448;10.228;2022-10-16T08:32:50;15.40;1.00
318;DHT22;146;53.448;10.228;2022-10-16T08:35:17;15.40;1.00
318;DHT22;146;53.448;10.228;2022-10-16T08:37:44;15.40;1.00
318;DHT22;146;53.448;10.228;2022-10-16T08:40:16;15.40;1.00
318;DHT22;146;53.448;10.228;2022-10-16T08:43:00;15.40;1.00
318;DHT22;146;53.448;10.228;2022-10-16T08:45:41;15.50;1.00
318;DHT22;146;53.448;10.228;2022-10-16T08:48:19;15.50;1.00
318;DHT22;146;53.448;10.228;2022-10-16T08:50:48;15.50;1.00
318;DHT22;146;53.448;10.228;2022-10-16T08:53:20;15.60;1.00
318;DHT22;146;53.448;10.228;2022-10-16T08:55:51;15.60;1.00
318;DHT22;146;53.448;10.228;2022-10-16T08:58:20;15.70;1.00
318;DHT22;146;53.448;10.228;2022-10-16T09:00:51;15.70;1.00
318;DHT22;146;53.448;10.228;2022-10-16T09:03:28;15.80;1.00
318;DHT22;146;53.448;10.228;2022-10-16T09:06:13;15.90;1.00
318;DHT22;146;53.448;10.228;2022-10-16T09:08:52;15.90;1.00
318;DHT22;146;53.448;10.228;2022-10-16T09:11:26;16.00;1.00
318;DHT22;146;53.448;10.228;2022-10-16T09:14:04;16.20;1.00
318;DHT22;146;53.448;10.228;2022-10-16T09:16:35;16.20;1.00
318;DHT22;146;53.448;10.228;2022-10-16T09:19:10;16.30;1.00
318;DHT22;146;53.448;10.228;2022-10-16T09:21:41;16.30;1.00
318;DHT22;146;53.448;10.228;2022-10-16T09:24:13;16.30;1.00
318;DHT22;146;53.448;10.228;2022-10-16T09:26:40;16.40;1.00
318;DHT22;146;53.448;10.228;2022-10-16T09:29:11;16.40;1.00
318;DHT22;146;53.448;10.228;2022-10-16T09:31:39;16.40;1.00
318;DHT22;146;53.448;10.228;2022-10-16T09:34:08;16.40;1.00
318;DHT22;146;53.448;10.228;2022-10-16T09:36:45;16.40;1.00
318;DHT22;146;53.448;10.228;2022-10-16T09:39:12;16.40;1.00
318;DHT22;146;53.448;10.228;2022-10-16T09:41:41;16.50;1.00
318;DHT22;146;53.448;10.228;2022-10-16T09:44:19;16.60;1.00
318;DHT22;146;53.448;10.228;2022-10-16T09:46:47;16.70;1.00
318;DHT22;146;53.448;10.228;2022-10-16T09:49:22;16.70;1.00
318;DHT22;146;53.448;10.228;2022-10-16T09:51:49;16.80;1.00
318;DHT22;146;53.448;10.228;2022-10-16T09:54:18;16.80;1.00
318;DHT22;146;53.448;10.228;2022-10-16T09:56:46;16.90;1.00
318;DHT22;146;53.448;10.228;2022-10-16T09:59:19;17.00;1.00
318;DHT22;146;53.448;10.228;2022-10-16T10:01:48;17.10;1.00
318;DHT22;146;53.448;10.228;2022-10-16T10:04:16;17.20;1.00
318;DHT22;146;53.448;10.228;2022-10-16T10:06:45;17.40;1.00
318;DHT22;146;53.448;10.228;2022-10-16T10:09:19;17.40;1.00
318;DHT22;146;53.448;10.228;2022-10-16T10:11:56;17.40;1.00
318;DHT22;146;53.448;10.228;2022-10-16T10:14:31;17.40;1.00
318;DHT22;146;53.448;10.228;2022-10-16T10:17:17;17.40;1.00
318;DHT22;146;53.448;10.228;2022-10-16T10:19:51;17.40;1.00
318;DHT22;146;53.448;10.228;2022-10-16T10:22:24;17.40;1.00
318;DHT22;146;53.448;10.228;2022-10-16T10:25:19;17.40;1.00
318;DHT22;146;53.448;10.228;2022-10-16T10:28:04;17.40;1.00
318;DHT22;146;53.448;10.228;2022-10-16T10:30:39;17.40;1.00
318;DHT22;146;53.448;10.228;2022-10-16T10:33:24;17.30;1.00
318;DHT22;146;53.448;10.228;2022-10-16T10:35:56;17.30;1.00
318;DHT22;146;53.448;10.228;2022-10-16T10:38:33;17.40;1.00
318;DHT22;146;53.448;10.228;2022-10-16T10:41:23;17.50;1.00
318;DHT22;146;53.448;10.228;2022-10-16T10:44:03;17.60;1.00
318;DHT22;146;53.448;10.228;2022-10-16T10:46:35;17.60;1.00
318;DHT22;146;53.448;10.228;2022-10-16T10:49:24;17.70;1.00
318;DHT22;146;53.448;10.228;2022-10-16T10:52:02;17.70;1.00
318;DHT22;146;53.448;10.228;2022-10-16T10:54:36;17.80;1.00
318;DHT22;146;53.448;10.228;2022-10-16T10:57:10;17.80;1.00
318;DHT22;146;53.448;10.228;2022-10-16T10:59:56;17.90;1.00
318;DHT22;146;53.448;10.228;2022-10-16T11:02:32;17.90;1.00
318;DHT22;146;53.448;10.228;2022-10-16T11:05:27;18.00;1.00
318;DHT22;146;53.448;10.228;2022-10-16T11:07:58;18.00;1.00
318;DHT22;146;53.448;10.228;2022-10-16T11:10:30;18.00;1.00
318;DHT22;146;53.448;10.228;2022-10-16T11:13:06;17.90;1.00
318;DHT22;146;53.448;10.228;2022-10-16T11:15:39;17.90;1.00
318;DHT22;146;53.448;10.228;2022-10-16T11:18:13;17.90;1.00
318;DHT22;146;53.448;10.228;2022-10-16T11:20:47;17.90;1.00
318;DHT22;146;53.448;10.228;2022-10-16T11:23:18;17.90;1.00
318;DHT22;146;53.448;10.228;2022-10-16T11:25:48;17.80;1.00
318;DHT22;146;53.448;10.228;2022-10-16T11:28:19;17.90;1.00
318;DHT22;146;53.448;10.228;2022-10-16T11:30:50;18.00;1.00
318;DHT22;146;53.448;10.228;2022-10-16T11:33:29;18.10;1.00
318;DHT22;146;53.448;10.228;2022-10-16T11:36:03;18.30;1.00
318;DHT22;146;53.448;10.228;2022-10-16T11:38:36;18.30;1.00
318;DHT22;146;53.448;10.228;2022-10-16T11:41:13;18.30;1.00
318;DHT22;146;53.448;10.228;2022-10-16T11:43:44;18.40;1.00
318;DHT22;146;53.448;10.228;2022-10-16T11:46:20;18.40;1.00
318;DHT22;146;53.448;10.228;2022-10-16T11:48:55;18.40;1.00
318;DHT22;146;53.448;10.228;2022-10-16T11:51:29;18.30;1.00
318;DHT22;146;53.448;10.228;2022-10-16T11:54:02;18.40;1.00
318;DHT22;146;53.448;10.228;2022-10-16T11:56:32;18.40;1.00
318;DHT22;146;53.448;10.228;2022-10-16T11:59:06;18.50;1.00
318;DHT22;146;53.448;10.228;2022-10-16T12:01:40;18.50;1.00
318;DHT22;146;53.448;10.228;2022-10-16T12:04:22;18.60;1.00
318;DHT22;146;53.448;10.228;2022-10-16T12:06:56;18.60;1.00
318;DHT22;146;53.448;10.228;2022-10-16T12:09:26;18.60;1.00
318;DHT22;146;53.448;10.228;2022-10-16T12:11:54;18.60;1.00
318;DHT22;146;53.448;10.228;2022-10-16T12:14:36;18.70;1.00
318;DHT22;146;53.448;10.228;2022-10-16T12:17:22;18.70;1.00
318;DHT22;146;53.448;10.228;2022-10-16T12:19:59;18.60;1.00
318;DHT22;146;53.448;10.228;2022-10-16T12:22:28;18.60;1.00
318;DHT22;146;53.448;10.228;2022-10-16T12:24:56;18.60;1.00
318;DHT22;146;53.448;10.228;2022-10-16T12:27:27;18.80;1.00
318;DHT22;146;53.448;10.228;2022-10-16T12:29:56;18.90;1.00
318;DHT22;146;53.448;10.228;2022-10-16T12:32:28;19.10;1.00
318;DHT22;146;53.448;10.228;2022-10-16T12:34:58;19.30;1.00
318;DHT22;146;53.448;10.228;2022-10-16T12:37:27;19.30;1.00
318;DHT22;146;53.448;10.228;2022-10-16T12:39:55;19.20;1.00
318;DHT22;146;53.448;10.228;2022-10-16T12:42:31;19.10;1.00
318;DHT22;146;53.448;10.228;2022-10-16T12:44:59;19.00;1.00
318;DHT22;146;53.448;10.228;2022-10-16T12:47:37;19.00;1.00
318;DHT22;146;53.448;10.228;2022-10-16T12:50:25;18.90;1.00
318;DHT22;146;53.448;10.228;2022-10-16T12:52:52;18.90;1.00
318;DHT22;146;53.448;10.228;2022-10-16T12:55:21;18.70;1.00
318;DHT22;146;53.448;10.228;2022-10-16T12:58:14;18.70;1.00
318;DHT22;146;53.448;10.228;2022-10-16T13:00:45;18.60;1.00
318;DHT22;146;53.448;10.228;2022-10-16T13:03:58;18.50;1.00
318;DHT22;146;53.448;10.228;2022-10-16T13:06:34;18.40;1.00
318;DHT22;146;53.448;10.228;2022-10-16T13:09:16;18.30;1.00
318;DHT22;146;53.448;10.228;2022-10-16T13:11:56;18.10;1.00
318;DHT22;146;53.448;10.228;2022-10-16T13:14:36;17.90;1.00
318;DHT22;146;53.448;10.228;2022-10-16T13:17:11;17.90;1.00
318;DHT22;146;53.448;10.228;2022-10-16T13:19:46;17.80;1.00
318;DHT22;146;53.448;10.228;2022-10-16T13:22:21;17.90;1.00
318;DHT22;146;53.448;10.228;2022-10-16T13:25:02;18.00;1.00
318;DHT22;146;53.448;10.228;2022-10-16T13:27:39;18.10;1.00
318;DHT22;146;53.448;10.228;2022-10-16T13:30:13;18.10;1.00
318;DHT22;146;53.448;10.228;2022-10-16T13:32:45;18.10;1.00
318;DHT22;146;53.448;10.228;2022-10-16T13:35:20;18.10;1.00
318;DHT22;146;53.448;10.228;2022-10-16T13:37:49;18.10;1.00
318;DHT22;146;53.448;10.228;2022-10-16T13:40:20;18.20;1.00
318;DHT22;146;53.448;10.228;2022-10-16T13:42:54;18.30;1.00
318;DHT22;146;53.448;10.228;2022-10-16T13:45:23;18.40;1.00
318;DHT22;146;53.448;10.228;2022-10-16T13:48:01;18.50;1.00
318;DHT22;146;53.448;10.228;2022-10-16T13:50:28;18.60;1.00
318;DHT22;146;53.448;10.228;2022-10-16T13:53:04;18.60;1.00
318;DHT22;146;53.448;10.228;2022-10-16T13:55:31;18.60;1.00
318;DHT22;146;53.448;10.228;2022-10-16T13:58:05;18.50;1.00
318;DHT22;146;53.448;10.228;2022-10-16T14:00:32;18.40;1.00
318;DHT22;146;53.448;10.228;2022-10-16T14:03:01;18.30;1.00
318;DHT22;146;53.448;10.228;2022-10-16T14:05:29;18.30;1.00
318;DHT22;146;53.448;10.228;2022-10-16T14:07:56;18.30;1.00
318;DHT22;146;53.448;10.228;2022-10-16T14:10:28;18.30;1.00
318;DHT22;146;53.448;10.228;2022-10-16T14:12:57;18.20;1.00
318;DHT22;146;53.448;10.228;2022-10-16T14:15:25;18.20;1.00
318;DHT22;146;53.448;10.228;2022-10-16T14:17:53;18.20;1.00
318;DHT22;146;53.448;10.228;2022-10-16T14:20:24;18.20;1.00
318;DHT22;146;53.448;10.228;2022-10-16T14:22:59;18.20;1.00
318;DHT22;146;53.448;10.228;2022-10-16T14:25:29;18.20;1.00
318;DHT22;146;53.448;10.228;2022-10-16T14:27:59;18.20;1.00
318;DHT22;146;53.448;10.228;2022-10-16T14:30:27;18.10;1.00
318;DHT22;146;53.448;10.228;2022-10-16T14:32:56;18.10;1.00
318;DHT22;146;53.448;10.228;2022-10-16T14:35:26;18.10;1.00
318;DHT22;146;53.448;10.228;2022-10-16T14:37:53;18.00;1.00
318;DHT22;146;53.448;10.228;2022-10-16T14:40:26;18.00;1.00
318;DHT22;146;53.448;10.228;2022-10-16T14:42:54;18.00;1.00
318;DHT22;146;53.448;10.228;2022-10-16T14:45:23;18.00;1.00
318;DHT22;146;53.448;10.228;2022-10-16T14:47:53;18.00;1.00
318;DHT22;146;53.448;10.228;2022-10-16T14:50:21;18.00;1.00
318;DHT22;146;53.448;10.228;2022-10-16T14:52:48;17.90;1.00
318;DHT22;146;53.448;10.228;2022-10-16T14:55:15;17.90;1.00
318;DHT22;146;53.448;10.228;2022-10-16T14:57:42;17.90;1.00
318;DHT22;146;53.448;10.228;2022-10-16T15:00:17;17.80;1.00
318;DHT22;146;53.448;10.228;2022-10-16T15:02:45;17.90;1.00
318;DHT22;146;53.448;10.228;2022-10-16T15:05:15;17.80;1.00
318;DHT22;146;53.448;10.228;2022-10-16T15:07:43;17.90;1.00
318;DHT22;146;53.448;10.228;2022-10-16T15:10:10;17.80;1.00
318;DHT22;146;53.448;10.228;2022-10-16T15:12:37;17.70;1.00
318;DHT22;146;53.448;10.228;2022-10-16T15:15:26;17.70;1.00
318;DHT22;146;53.448;10.228;2022-10-16T15:17:56;17.60;1.00
318;DHT22;146;53.448;10.228;2022-10-16T15:20:26;17.70;1.00
318;DHT22;146;53.448;10.228;2022-10-16T15:22:53;17.70;1.00
318;DHT22;146;53.448;10.228;2022-10-16T15:25:32;17.60;1.00
318;DHT22;146;53.448;10.228;2022-10-16T15:27:59;17.70;1.00
318;DHT22;146;53.448;10.228;2022-10-16T15:30:29;17.60;1.00
318;DHT22;146;53.448;10.228;2022-10-16T15:32:56;17.50;1.00
318;DHT22;146;53.448;10.228;2022-10-16T15:35:22;17.40;1.00
318;DHT22;146;53.448;10.228;2022-10-16T15:37:49;17.30;1.00
318;DHT22;146;53.448;10.228;2022-10-16T15:40:17;17.20;1.00
318;DHT22;146;53.448;10.228;2022-10-16T15:42:44;17.20;1.00
318;DHT22;146;53.448;10.228;2022-10-16T15:45:12;17.10;1.00
318;DHT22;146;53.448;10.228;2022-10-16T15:47:41;17.00;1.00
318;DHT22;146;53.448;10.228;2022-10-16T15:50:10;17.00;1.00
318;DHT22;146;53.448;10.228;2022-10-16T15:52:38;17.00;1.00
318;DHT22;146;53.448;10.228;2022-10-16T15:55:06;17.00;1.00
318;DHT22;146;53.448;10.228;2022-10-16T15:57:33;16.90;1.00
318;DHT22;146;53.448;10.228;2022-10-16T16:00:00;16.90;1.00
318;DHT22;146;53.448;10.228;2022-10-16T16:02:26;16.90;1.00
318;DHT22;146;53.448;10.228;2022-10-16T16:04:55;16.80;1.00
318;DHT22;146;53.448;10.228;2022-10-16T16:07:22;16.70;1.00
318;DHT22;146;53.448;10.228;2022-10-16T16:09:49;16.70;1.00
318;DHT22;146;53.448;10.228;2022-10-16T16:12:16;16.50;1.00
318;DHT22;146;53.448;10.228;2022-10-16T16:14:42;16.50;1.00
318;DHT22;146;53.448;10.228;2022-10-16T16:17:11;16.50;1.00
318;DHT22;146;53.448;10.228;2022-10-16T16:19:38;16.40;1.00
318;DHT22;146;53.448;10.228;2022-10-16T16:22:06;16.30;1.00
318;DHT22;146;53.448;10.228;2022-10-16T16:24:33;16.30;1.00
318;DHT22;146;53.448;10.228;2022-10-16T16:26:59;16.20;1.00
318;DHT22;146;53.448;10.228;2022-10-16T16:29:26;16.20;1.00
318;DHT22;146;53.448;10.228;2022-10-16T16:31:53;16.10;1.00
318;DHT22;146;53.448;10.228;2022-10-16T16:34:23;16.00;1.00
318;DHT22;146;53.448;10.228;2022-10-16T16:36:50;15.90;1.00
318;DHT22;146;53.448;10.228;2022-10-16T16:39:18;15.90;1.00
318;DHT22;146;53.448;10.228;2022-10-16T16:41:45;15.80;1.00
318;DHT22;146;53.448;10.228;2022-10-16T16:44:12;15.90;1.00
318;DHT22;146;53.448;10.228;2022-10-16T16:46:40;15.70;1.00
318;DHT22;146;53.448;10.228;2022-10-16T16:49:09;15.60;1.00
318;DHT22;146;53.448;10.228;2022-10-16T16:51:37;15.50;1.00
318;DHT22;146;53.448;10.228;2022-10-16T16:54:05;15.50;1.00
318;DHT22;146;53.448;10.228;2022-10-16T16:56:34;15.40;1.00